logo
Rechercher aéroport 
image banner adimage banner adimage banner ad
image banner ad

HKBB - Mbalambala

Situé à , Kenya

ICAO - , IATA -

Données fournies par Airmate  

Information générale

Coordonnées: S0°3'10" E39°3'3"
Élévation : 655 feet MSL.
 
Voir autres Aéroports à North-Eastern Province

Données opérationnelles

Special qualification required
Heure actuelle UTC:
Heure actuelle locale:
Météo à : HKGA - Garissa ( 80 km )
METAR: HKGA 290900Z 18022KT 9999 FEW026 33/15 Q1014
Voir NOTAMs / SUP AIP / TFR affectant cet aéroport [VIEW]
Fréquences de communication: [VIEW]

Pistes:

Coordonnées de l'aéroport

Adresse: Kenya

Vue satellite de HKBB